Time;durP1;ratioP1;P1;durP2;ratioP2;P2;SDS_P1;SDS_P2;PMS_P1;PMS_P2;Temp;Humidity;BMP_temperature;BMP_pressure;BME280_temperature;BME280_humidity;BME280_pressure;Samples;Min_cycle;Max_cycle;Signal;HPM_P1;HPM_P2
2023/05/31 00:00:04;;;;;;;33.13;19.40;;;17.60;99.90;;;;;;6313358;22;20006;-92
2023/05/31 00:02:34;;;;;;;37.92;20.67;;;17.60;99.90;;;;;;6339599;22;20006;-92
2023/05/31 00:05:00;;;;;;;35.90;21.73;;;17.60;99.90;;;;;;6338954;22;20006;-92
2023/05/31 00:07:27;;;;;;;38.03;21.25;;;17.60;99.90;;;;;;6313417;22;20003;-92
2023/05/31 00:09:53;;;;;;;34.47;20.20;;;17.50;99.90;;;;;;6315086;22;20403;-92
2023/05/31 00:12:23;;;;;;;33.53;20.08;;;17.60;99.90;;;;;;6317024;22;20007;-93
2023/05/31 00:14:49;;;;;;;39.67;19.65;;;17.60;99.90;;;;;;6315668;22;20010;-91
2023/05/31 00:17:16;;;;;;;33.13;20.23;;;17.60;99.90;;;;;;6314411;22;20007;-94
2023/05/31 00:19:42;;;;;;;31.70;19.00;;;17.60;99.90;;;;;;6313048;22;20011;-94
2023/05/31 00:22:11;;;;;;;39.03;19.77;;;17.60;99.90;;;;;;6261229;22;20397;-92
2023/05/31 00:24:56;;;;;;;32.65;19.15;;;17.60;99.90;;;;;;6258124;22;20011;-94
2023/05/31 00:27:23;;;;;;;31.20;18.90;;;17.60;99.90;;;;;;6283127;22;20498;-94
2023/05/31 00:29:51;;;;;;;34.08;19.73;;;17.50;99.90;;;;;;6257519;22;20011;-94
2023/05/31 00:32:17;;;;;;;37.78;21.10;;;17.50;99.90;;;;;;6257648;22;20011;-94
2023/05/31 00:34:44;;;;;;;32.00;20.15;;;17.40;99.90;;;;;;6257085;22;20040;-94
2023/05/31 00:37:10;;;;;;;33.03;20.13;;;17.30;99.90;;;;;;6259086;22;20342;-92
2023/05/31 00:39:40;;;;;;;34.83;19.13;;;17.40;99.90;;;;;;6259706;22;20014;-93
2023/05/31 00:42:07;;;;;;;33.15;19.10;;;17.30;99.90;;;;;;6257238;22;20429;-93
2023/05/31 00:44:35;;;;;;;33.00;18.92;;;17.40;99.90;;;;;;6258305;22;20000;-94
2023/05/31 00:47:02;;;;;;;36.35;19.90;;;17.30;99.90;;;;;;6257230;22;20031;-92
2023/05/31 00:49:29;;;;;;;31.75;19.15;;;17.30;99.90;;;;;;6257272;22;20440;-93
2023/05/31 00:51:56;;;;;;;35.42;19.08;;;17.30;99.90;;;;;;6256993;22;20089;-94
2023/05/31 00:54:23;;;;;;;26.55;17.73;;;17.30;99.90;;;;;;6257180;22;20018;-94
2023/05/31 00:56:54;;;;;;;33.08;18.75;;;17.20;99.90;;;;;;6257262;22;20393;-93
2023/05/31 00:59:21;;;;;;;32.95;19.20;;;17.20;99.90;;;;;;6257186;22;20011;-94
2023/05/31 01:01:48;;;;;;;31.65;18.60;;;17.20;99.90;;;;;;6257513;22;20007;-93
2023/05/31 01:04:16;;;;;;;30.13;18.08;;;17.20;99.90;;;;;;6257267;22;20437;-93
2023/05/31 01:06:42;;;;;;;29.75;18.75;;;17.20;99.90;;;;;;6256911;22;20381;-94
2023/05/31 01:09:09;;;;;;;30.02;18.33;;;17.20;99.90;;;;;;6257504;22;20011;-93
2023/05/31 01:12:02;;;;;;;33.53;20.10;;;17.20;99.90;;;;;;6257198;22;20003;-94
2023/05/31 01:14:34;;;;;;;32.67;19.17;;;17.10;99.90;;;;;;6256923;22;20021;-93
2023/05/31 01:17:20;;;;;;;34.00;19.67;;;17.10;99.90;;;;;;6257514;22;20007;-93
2023/05/31 01:19:53;;;;;;;33.58;19.23;;;17.00;99.90;;;;;;6257001;22;20011;-93
2023/05/31 01:22:33;;;;;;;34.10;19.95;;;16.90;99.90;;;;;;6256989;22;20018;-93
2023/05/31 01:25:29;;;;;;;36.35;21.55;;;16.90;99.90;;;;;;6256859;22;20011;-92
2023/05/31 01:27:58;;;;;;;38.90;20.50;;;16.90;99.90;;;;;;6257608;22;20029;-94
2023/05/31 01:30:30;;;;;;;40.45;20.73;;;16.90;99.90;;;;;;6257556;22;20004;-93
2023/05/31 01:32:59;;;;;;;34.20;19.95;;;16.90;99.90;;;;;;6257242;22;20019;-94
2023/05/31 01:35:28;;;;;;;36.50;20.80;;;16.90;99.90;;;;;;6257612;22;20003;-95
2023/05/31 01:37:58;;;;;;;38.97;20.85;;;16.90;99.90;;;;;;6283472;22;20065;-95
2023/05/31 01:40:26;;;;;;;42.15;22.48;;;16.90;99.90;;;;;;6257253;22;20035;-94
2023/05/31 01:42:56;;;;;;;40.97;22.15;;;17.00;99.90;;;;;;6282592;22;20094;-94
2023/05/31 01:45:25;;;;;;;41.50;22.98;;;17.00;99.90;;;;;;6257561;22;20059;-95
2023/05/31 01:48:00;;;;;;;39.08;21.50;;;17.10;99.90;;;;;;6256607;22;20398;-94
2023/05/31 01:50:28;;;;;;;36.42;20.27;;;17.10;99.90;;;;;;6282988;22;20000;-93
2023/05/31 01:52:55;;;;;;;30.95;19.27;;;17.20;99.90;;;;;;6256420;22;20018;-96
2023/05/31 01:55:28;;;;;;;29.02;18.50;;;17.30;99.90;;;;;;6256760;22;20044;-93
2023/05/31 01:57:56;;;;;;;35.53;19.20;;;17.40;99.90;;;;;;6257773;22;20018;-93
2023/05/31 02:00:24;;;;;;;32.45;19.20;;;17.40;99.90;;;;;;6215233;23;20005;-94
2023/05/31 02:02:53;;;;;;;33.00;19.27;;;17.40;99.90;;;;;;6190716;23;20422;-95
2023/05/31 02:05:20;;;;;;;34.78;20.05;;;17.40;99.90;;;;;;6215378;23;20060;-95
2023/05/31 02:07:47;;;;;;;31.30;19.80;;;17.40;99.90;;;;;;6189978;23;20028;-93
2023/05/31 02:10:15;;;;;;;29.55;18.80;;;17.30;99.90;;;;;;6216553;23;20044;-93
2023/05/31 02:12:41;;;;;;;29.77;19.10;;;17.30;99.90;;;;;;6217216;23;20019;-94
2023/05/31 02:15:10;;;;;;;29.05;17.23;;;17.20;99.90;;;;;;6190070;23;20059;-94
2023/05/31 02:17:42;;;;;;;24.20;15.82;;;17.20;99.90;;;;;;6215041;23;20008;-95
2023/05/31 02:20:15;;;;;;;32.47;17.73;;;17.20;99.90;;;;;;6208264;23;20088;-94
2023/05/31 02:22:45;;;;;;;34.38;18.15;;;17.10;99.90;;;;;;6165501;23;20037;-94
2023/05/31 02:25:34;;;;;;;35.92;19.17;;;17.10;99.90;;;;;;6214665;23;20031;-94
2023/05/31 02:28:34;;;;;;;;;;;;;;;;;;;;;
2023/05/31 02:31:01;;;;;;;37.30;20.73;;;17.00;99.90;;;;;;6190268;23;20009;-95
2023/05/31 02:33:30;;;;;;;42.92;20.80;;;16.90;99.90;;;;;;6214069;23;20016;-93
2023/05/31 02:36:11;;;;;;;34.03;20.17;;;16.90;99.90;;;;;;6189787;23;20013;-95
2023/05/31 02:38:41;;;;;;;39.47;21.02;;;16.90;99.90;;;;;;6247259;22;20007;-93
2023/05/31 02:41:21;;;;;;;37.42;20.73;;;16.90;99.90;;;;;;6284197;22;20103;-94
2023/05/31 02:43:48;;;;;;;39.00;21.13;;;16.90;99.90;;;;;;6281820;22;20007;-92
2023/05/31 02:49:49;;;;;;;51.60;23.00;;;16.80;99.90;;;;;;6260337;22;20011;-92
2023/05/31 02:52:18;;;;;;;46.72;23.50;;;16.80;99.90;;;;;;6282430;22;20027;-92
2023/05/31 02:55:10;;;;;;;62.08;25.60;;;16.70;99.90;;;;;;6286073;22;20444;-93
2023/05/31 02:57:53;;;;;;;82.50;27.23;;;16.60;99.90;;;;;;6284423;22;20086;-93
2023/05/31 03:00:40;;;;;;;61.25;27.63;;;16.60;99.90;;;;;;6371421;22;20045;-93
2023/05/31 03:03:10;;;;;;;51.80;24.40;;;16.60;99.90;;;;;;6344202;22;20003;-92
2023/05/31 03:05:59;;;;;;;68.88;25.35;;;16.60;99.90;;;;;;6339204;22;20006;-93
2023/05/31 03:08:44;;;;;;;73.18;25.48;;;16.80;99.90;;;;;;6341020;22;20081;-92
2023/05/31 03:14:50;;;;;;;74.38;23.30;;;17.00;99.90;;;;;;6306145;22;20091;-92
2023/05/31 03:17:37;;;;;;;108.15;24.83;;;17.00;99.90;;;;;;6307970;22;20096;-94
2023/05/31 03:20:09;;;;;;;141.43;24.58;;;17.10;99.90;;;;;;6281734;22;20016;-95
2023/05/31 03:32:12;;;;;;;132.65;28.27;;;17.30;99.90;;;;;;6309463;22;20027;-92
2023/05/31 03:35:09;;;;;;;94.07;25.20;;;17.40;99.90;;;;;;6189576;23;20012;-92
2023/05/31 03:37:38;;;;;;;86.75;26.10;;;17.50;99.90;;;;;;6161178;23;20307;-92
2023/05/31 03:40:22;;;;;;;;;;;;;;;;;;;;;
2023/05/31 03:43:22;;;;;;;82.07;23.15;;;17.70;99.90;;;;;;6215498;23;20027;-93
2023/05/31 03:45:54;;;;;;;91.10;25.13;;;17.70;99.90;;;;;;6172385;23;20079;-92
2023/05/31 03:48:24;;;;;;;114.22;23.42;;;17.70;99.90;;;;;;6213064;23;20012;-92
2023/05/31 03:59:57;;;;;;;180.13;24.25;;;17.90;99.90;;;;;;6278964;22;20027;-92
2023/05/31 04:02:42;;;;;;;121.65;21.08;;;17.90;99.90;;;;;;6253345;22;20016;-91
2023/05/31 04:05:31;;;;;;;102.03;21.92;;;18.00;99.90;;;;;;6251684;22;20008;-92
2023/05/31 04:08:13;;;;;;;111.75;20.70;;;18.10;99.90;;;;;;6251838;22;20039;-92
2023/05/31 04:10:48;;;;;;;89.65;23.15;;;18.20;99.90;;;;;;6252210;22;20011;-93
2023/05/31 04:13:15;;;;;;;81.95;17.98;;;18.20;99.90;;;;;;6251843;22;20041;-92
2023/05/31 04:18:44;;;;;;;136.32;20.98;;;18.50;99.90;;;;;;6232754;22;20046;-92
2023/05/31 04:21:45;;;;;;;75.15;21.33;;;18.60;99.90;;;;;;6265816;22;20054;-93
2023/05/31 07:14:59;;;;;;;23.42;21.98;;;27.90;99.90;;;;;;6299566;22;20057;-93
2023/05/31 07:21:55;;;;;;;23.92;22.33;;;29.40;99.90;;;;;;6132895;23;20009;-92
2023/05/31 07:29:26;;;;;;;24.58;22.80;;;30.00;99.90;;;;;;6166065;23;20020;-94
2023/05/31 07:32:18;;;;;;;24.90;23.17;;;29.00;99.90;;;;;;6071957;23;20097;-93
2023/05/31 07:35:05;;;;;;;25.13;23.23;;;30.20;99.90;;;;;;6072149;23;20034;-93
2023/05/31 07:38:03;;;;;;;25.08;23.40;;;30.60;99.90;;;;;;6077896;22;20044;-93
2023/05/31 07:40:34;;;;;;;25.27;23.77;;;31.60;99.90;;;;;;6217012;23;20444;-93
2023/05/31 07:43:39;;;;;;;24.83;23.25;;;31.80;99.90;;;;;;6196680;23;20008;-93
2023/05/31 07:46:44;;;;;;;24.85;23.35;;;31.50;99.90;;;;;;6195298;23;20004;-93
2023/05/31 07:50:07;;;;;;;25.52;23.95;;;30.80;99.90;;;;;;6225750;23;20096;-93
2023/05/31 07:52:51;;;;;;;23.83;22.38;;;31.50;99.90;;;;;;6222800;23;20012;-94
2023/05/31 07:55:27;;;;;;;24.50;22.90;;;30.40;99.90;;;;;;6223065;23;20000;-94
2023/05/31 07:57:54;;;;;;;25.02;23.40;;;29.30;99.90;;;;;;6197314;23;20040;-92
2023/05/31 08:00:20;;;;;;;24.60;23.00;;;30.00;99.90;;;;;;6197141;23;20091;-92
2023/05/31 08:02:54;;;;;;;23.90;22.40;;;30.10;99.90;;;;;;6222414;23;20048;-94
2023/05/31 08:05:21;;;;;;;23.98;22.48;;;30.20;99.90;;;;;;6197528;23;20008;-94
2023/05/31 08:07:51;;;;;;;23.92;22.33;;;30.40;99.90;;;;;;6196854;23;20392;-95
2023/05/31 08:10:23;;;;;;;24.67;23.00;;;30.40;99.90;;;;;;6222059;23;20011;-93
2023/05/31 08:13:01;;;;;;;24.35;22.85;;;30.00;99.90;;;;;;6222278;23;20074;-93
2023/05/31 08:15:31;;;;;;;24.85;23.20;;;30.20;99.90;;;;;;6222089;23;20034;-93
2023/05/31 08:17:58;;;;;;;25.42;23.10;;;28.80;99.90;;;;;;6196627;23;20004;-93
2023/05/31 08:20:26;;;;;;;25.08;23.25;;;28.50;99.90;;;;;;6222306;23;20334;-94
2023/05/31 08:22:55;;;;;;;25.17;23.48;;;28.40;99.90;;;;;;6197056;23;20074;-93
2023/05/31 08:25:27;;;;;;;24.13;22.73;;;28.80;99.90;;;;;;6222306;23;20004;-94
2023/05/31 08:27:58;;;;;;;25.15;23.38;;;29.40;99.90;;;;;;6196826;23;20087;-93
2023/05/31 08:30:35;;;;;;;24.73;22.67;;;29.10;99.90;;;;;;6197375;23;20035;-94
2023/05/31 08:33:02;;;;;;;23.40;21.90;;;29.10;99.90;;;;;;6196702;23;20103;-94
2023/05/31 08:35:32;;;;;;;23.88;22.30;;;28.30;99.90;;;;;;6197392;23;20443;-93
2023/05/31 08:38:02;;;;;;;24.75;23.05;;;27.50;99.90;;;;;;6234282;22;20042;-94
2023/05/31 08:40:32;;;;;;;23.70;22.30;;;27.60;99.90;;;;;;6278216;22;20031;-94
2023/05/31 08:43:15;;;;;;;23.75;22.25;;;28.60;99.90;;;;;;6254428;22;20453;-93
2023/05/31 08:45:43;;;;;;;;;;;28.40;99.90;;;;;;6278931;22;20054;-93
2023/05/31 08:48:35;;;;;;;22.80;21.20;;;27.50;99.90;;;;;;6277567;22;19906;-94
2023/05/31 08:51:08;;;;;;;23.80;22.23;;;26.80;99.90;;;;;;6252648;22;20008;-93
2023/05/31 08:53:50;;;;;;;24.02;22.10;;;27.60;99.90;;;;;;6277951;22;20019;-92
2023/05/31 08:56:18;;;;;;;23.92;22.25;;;28.40;99.90;;;;;;6252058;22;20018;-93
2023/05/31 08:58:56;;;;;;;23.80;22.15;;;29.60;99.90;;;;;;6278025;22;20012;-92
2023/05/31 09:01:27;;;;;;;23.23;21.73;;;28.90;99.90;;;;;;6251964;22;20008;-94
2023/05/31 09:03:55;;;;;;;23.92;22.35;;;29.10;99.90;;;;;;6278145;22;20032;-92
2023/05/31 09:06:25;;;;;;;23.90;22.10;;;28.50;99.90;;;;;;6277494;22;20012;-92
2023/05/31 09:08:51;;;;;;;23.15;21.65;;;27.80;99.90;;;;;;6278964;22;20004;-93
2023/05/31 09:11:18;;;;;;;22.88;21.55;;;27.20;99.90;;;;;;6253257;22;20082;-94
2023/05/31 09:13:47;;;;;;;22.30;20.73;;;26.70;99.90;;;;;;6253438;22;20026;-93
2023/05/31 09:16:23;;;;;;;21.50;20.10;;;25.70;99.90;;;;;;6252460;22;20003;-93
2023/05/31 09:19:04;;;;;;;20.63;19.33;;;25.50;99.90;;;;;;6278078;22;20016;-95
2023/05/31 09:21:43;;;;;;;21.10;19.35;;;25.30;99.90;;;;;;6277835;22;20030;-92
2023/05/31 09:24:10;;;;;;;20.88;19.63;;;25.50;99.90;;;;;;6278728;22;20043;-93
2023/05/31 09:26:50;;;;;;;22.40;20.60;;;26.20;99.90;;;;;;6251264;22;20087;-93
2023/05/31 09:29:29;;;;;;;21.20;19.88;;;26.90;99.90;;;;;;6277800;22;20069;-95
2023/05/31 09:32:12;;;;;;;22.17;20.83;;;26.30;99.90;;;;;;6278396;22;20026;-93
2023/05/31 09:34:51;;;;;;;21.83;20.63;;;26.20;99.90;;;;;;6278442;22;20008;-92
2023/05/31 09:37:23;;;;;;;22.52;21.10;;;27.10;99.90;;;;;;6278274;22;20007;-93
2023/05/31 09:39:59;;;;;;;22.73;21.10;;;27.20;99.90;;;;;;6277085;22;20012;-93
2023/05/31 09:49:01;;;;;;;22.35;20.85;;;27.20;99.90;;;;;;6370330;22;20018;-93
2023/05/31 09:51:41;;;;;;;21.40;20.10;;;26.70;99.90;;;;;;6281543;22;20018;-93
2023/05/31 09:54:26;;;;;;;22.90;21.23;;;27.10;99.90;;;;;;6276287;22;20557;-92
2023/05/31 09:57:57;;;;;;;21.10;19.60;;;26.90;99.90;;;;;;6250964;22;20062;-92
2023/05/31 10:04:12;;;;;;;21.15;19.85;;;26.20;99.90;;;;;;6375920;22;20026;-92
2023/05/31 10:06:39;;;;;;;20.70;19.48;;;26.30;99.90;;;;;;6344619;22;20037;-91
2023/05/31 10:09:07;;;;;;;20.88;19.58;;;26.30;99.90;;;;;;6352451;22;19999;-93
2023/05/31 10:11:35;;;;;;;21.50;20.20;;;26.80;99.90;;;;;;6365373;22;20032;-92
2023/05/31 10:14:12;;;;;;;21.60;20.17;;;26.80;99.90;;;;;;6351455;22;20014;-93
2023/05/31 10:17:03;;;;;;;20.33;19.13;;;26.40;99.90;;;;;;6344431;22;20009;-94
2023/05/31 10:19:47;;;;;;;20.63;19.17;;;25.90;99.90;;;;;;6307213;22;20047;-92
2023/05/31 10:22:16;;;;;;;19.27;18.08;;;25.80;99.90;;;;;;6344229;22;20011;-92
2023/05/31 10:24:45;;;;;;;20.05;18.67;;;25.90;99.90;;;;;;6344078;22;20006;-93
2023/05/31 10:27:23;;;;;;;20.42;19.02;;;26.10;99.90;;;;;;6344280;22;20034;-92
2023/05/31 10:29:53;;;;;;;20.88;19.63;;;26.60;99.90;;;;;;6344363;22;20010;-93
2023/05/31 10:45:35;;;;;;;21.60;20.10;;;26.50;99.90;;;;;;5092977;27;20352;-93
2023/05/31 10:48:17;;;;;;;21.38;20.08;;;26.50;99.90;;;;;;5091541;28;20032;-93
2023/05/31 10:50:58;;;;;;;22.00;20.45;;;26.40;99.90;;;;;;5086206;28;20025;-93
2023/05/31 10:53:36;;;;;;;21.88;20.05;;;26.50;99.90;;;;;;5053994;28;20036;-92
2023/05/31 10:56:10;;;;;;;21.67;20.08;;;26.70;99.90;;;;;;5053757;28;20029;-93
2023/05/31 10:58:39;;;;;;;21.85;20.30;;;26.40;99.90;;;;;;5053891;28;20039;-93
2023/05/31 11:01:14;;;;;;;21.67;20.27;;;25.90;99.90;;;;;;5053783;28;20032;-93
2023/05/31 11:03:49;;;;;;;22.40;20.60;;;25.50;99.90;;;;;;5050445;28;20136;-94
2023/05/31 11:06:22;;;;;;;21.17;19.83;;;25.80;99.90;;;;;;5067130;28;20026;-95
2023/05/31 11:09:11;;;;;;;21.65;20.25;;;25.50;99.90;;;;;;5066829;28;20028;-93
2023/05/31 13:09:29;;;;;;;21.80;20.20;;;26.60;99.90;;;;;;6037532;23;20044;31
2023/05/31 13:11:56;;;;;;;23.38;21.58;;;26.30;99.90;;;;;;4951828;29;19923;-93
2023/05/31 13:14:22;;;;;;;23.10;21.30;;;26.30;99.90;;;;;;4953604;29;20037;-93
2023/05/31 13:16:48;;;;;;;23.60;21.70;;;26.20;99.90;;;;;;4953748;29;20059;-93
2023/05/31 13:19:16;;;;;;;23.50;21.88;;;26.10;99.90;;;;;;4953589;29;20405;-93
2023/05/31 13:21:49;;;;;;;23.13;21.42;;;26.20;99.90;;;;;;4954927;29;20054;-93
2023/05/31 13:24:15;;;;;;;23.50;21.73;;;26.20;99.90;;;;;;4940513;29;20039;-92
2023/05/31 13:26:42;;;;;;;23.48;21.60;;;26.40;99.90;;;;;;4940036;29;20083;-93
2023/05/31 13:29:09;;;;;;;23.55;21.88;;;26.40;99.90;;;;;;4940921;29;20122;-93
2023/05/31 13:31:35;;;;;;;23.00;21.30;;;26.20;99.90;;;;;;4943553;29;20023;-96
2023/05/31 13:34:02;;;;;;;23.80;22.08;;;26.40;99.90;;;;;;4941345;29;20114;-93
2023/05/31 13:36:28;;;;;;;22.55;21.05;;;26.50;99.90;;;;;;4945777;29;20031;-94
2023/05/31 13:38:55;;;;;;;22.23;20.70;;;26.50;99.90;;;;;;4958272;29;20031;-92
2023/05/31 13:41:21;;;;;;;22.10;20.55;;;26.70;99.90;;;;;;4958928;28;20055;-93
2023/05/31 13:43:49;;;;;;;22.77;21.13;;;26.90;99.90;;;;;;4956065;28;20043;-94
2023/05/31 13:46:16;;;;;;;21.25;19.65;;;26.90;99.90;;;;;;4955742;28;20027;-94
2023/05/31 13:48:43;;;;;;;22.83;20.83;;;27.00;99.90;;;;;;4956040;28;20090;-94
2023/05/31 13:51:11;;;;;;;22.25;20.75;;;27.10;99.90;;;;;;4959439;29;20046;-92
2023/05/31 13:53:38;;;;;;;22.80;21.05;;;27.50;99.90;;;;;;4955798;28;20035;-94
2023/05/31 13:56:08;;;;;;;23.13;21.35;;;27.50;99.90;;;;;;4955761;28;20031;-93
2023/05/31 13:58:36;;;;;;;22.85;21.15;;;27.60;99.90;;;;;;4956318;28;20031;-93
2023/05/31 14:01:09;;;;;;;21.70;20.33;;;27.70;99.90;;;;;;4949795;28;20031;-93
2023/05/31 14:03:39;;;;;;;22.20;20.70;;;27.80;99.90;;;;;;4956014;29;20476;-94
2023/05/31 14:06:07;;;;;;;23.33;21.27;;;28.00;99.90;;;;;;4971907;28;20035;-94
2023/05/31 14:08:34;;;;;;;23.17;21.02;;;28.00;99.90;;;;;;4973705;28;20066;-93
2023/05/31 14:11:01;;;;;;;23.38;21.42;;;27.80;99.90;;;;;;4956132;28;20063;-93
2023/05/31 14:13:30;;;;;;;21.67;19.73;;;27.50;99.90;;;;;;4972035;28;20046;-92
2023/05/31 14:15:56;;;;;;;21.35;19.48;;;26.40;99.90;;;;;;4955717;28;20031;-93
2023/05/31 14:18:23;;;;;;;23.88;21.55;;;25.40;99.90;;;;;;4971706;28;20086;-91
2023/05/31 14:20:53;;;;;;;36.63;33.28;;;24.10;99.90;;;;;;4971634;28;20543;-92
2023/05/31 14:26:41;;;;;;;25.83;21.67;;;22.50;99.90;;;;;;4955567;29;20057;-92
2023/05/31 14:29:27;;;;;;;22.83;18.75;;;22.30;99.90;;;;;;4972721;28;20031;-91
2023/05/31 14:32:49;;;;;;;19.17;16.63;;;22.20;99.90;;;;;;4936513;29;20054;-91
2023/05/31 14:44:48;;;;;;;21.40;12.55;;;22.30;99.90;;;;;;4971052;28;20035;-92
2023/05/31 14:50:37;;;;;;;14.70;10.83;;;22.20;99.90;;;;;;4956634;29;20543;-92
2023/05/31 14:59:30;;;;;;;13.20;11.13;;;22.40;99.90;;;;;;4956689;29;20114;-92
2023/05/31 15:02:15;;;;;;;14.80;11.93;;;22.50;99.90;;;;;;4938813;29;20399;-92
2023/05/31 15:04:42;;;;;;;13.65;11.32;;;22.70;99.90;;;;;;4939209;29;20087;-91
2023/05/31 15:07:08;;;;;;;13.07;11.88;;;22.60;99.90;;;;;;4970783;28;20032;-93
2023/05/31 15:12:58;;;;;;;15.80;14.20;;;22.80;99.90;;;;;;4970785;28;20126;-91
2023/05/31 15:15:44;;;;;;;16.52;14.82;;;22.70;99.90;;;;;;4970688;28;20075;-91
2023/05/31 15:30:44;;;;;;;14.98;13.88;;;21.70;99.90;;;;;;4956463;28;20035;-92
2023/05/31 15:36:33;;;;;;;14.00;12.90;;;21.80;99.90;;;;;;4974496;28;20058;-91
2023/05/31 15:39:18;;;;;;;17.23;12.60;;;22.10;99.90;;;;;;4972953;28;20066;-91
2023/05/31 15:42:22;;;;;;;14.50;13.35;;;22.30;99.90;;;;;;4958881;29;20058;-93
2023/05/31 15:45:26;;;;;;;13.60;12.30;;;22.30;99.90;;;;;;4972267;28;20444;-93
2023/05/31 15:48:10;;;;;;;13.63;12.43;;;22.50;99.90;;;;;;4971717;28;20058;-91
2023/05/31 16:00:27;;;;;;;14.82;13.52;;;22.20;99.90;;;;;;4964948;28;20027;-92
2023/05/31 16:03:13;;;;;;;14.88;13.57;;;22.20;99.90;;;;;;4974140;28;20031;-92
2023/05/31 16:05:40;;;;;;;15.00;13.80;;;22.20;99.90;;;;;;4974533;28;20436;-93
2023/05/31 16:12:06;;;;;;;15.27;14.05;;;22.20;99.90;;;;;;4958655;28;20050;-92
2023/05/31 16:14:51;;;;;;;14.95;13.65;;;22.10;99.90;;;;;;4958379;29;20109;-95
2023/05/31 16:17:36;;;;;;;14.43;13.23;;;22.00;99.90;;;;;;4973706;28;20027;-93
2023/05/31 16:20:21;;;;;;;14.20;12.82;;;21.90;99.90;;;;;;4958342;29;20042;-93
2023/05/31 16:29:54;;;;;;;14.40;12.82;;;21.80;99.90;;;;;;4954591;29;20040;-91
2023/05/31 16:32:57;;;;;;;14.23;12.88;;;21.80;99.90;;;;;;4938833;29;20044;-93
2023/05/31 16:39:07;;;;;;;14.55;13.18;;;21.90;99.90;;;;;;4942225;28;20076;-93
2023/05/31 16:44:41;;;;;;;13.52;11.50;;;21.70;99.90;;;;;;4938227;29;20036;-93
2023/05/31 16:47:25;;;;;;;13.50;12.10;;;21.70;99.90;;;;;;4939277;29;20067;-92
2023/05/31 16:53:14;;;;;;;19.08;12.70;;;21.60;99.90;;;;;;4953323;29;20050;-93
2023/05/31 17:05:48;;;;;;;14.05;12.60;;;21.30;99.90;;;;;;4938619;29;20038;-92
2023/05/31 17:08:34;;;;;;;13.45;12.13;;;21.30;99.90;;;;;;4939175;29;20519;-93
2023/05/31 17:11:38;;;;;;;15.70;12.23;;;21.30;99.90;;;;;;4951530;28;20504;-92
2023/05/31 17:14:23;;;;;;;16.45;12.55;;;21.20;99.90;;;;;;4946971;29;20054;-93
2023/05/31 17:17:33;;;;;;;13.13;11.88;;;21.30;99.90;;;;;;4970994;28;20046;-93
2023/05/31 17:20:42;;;;;;;14.27;12.23;;;21.30;99.90;;;;;;4942235;29;20031;-93
2023/05/31 17:27:20;;;;;;;14.80;12.73;;;21.30;99.90;;;;;;4957302;29;20094;-94
2023/05/31 17:36:52;;;;;;;15.68;11.48;;;21.30;99.90;;;;;;4937718;29;20035;-93
2023/05/31 17:47:19;;;;;;;16.25;13.63;;;21.10;99.90;;;;;;4947408;29;20031;-94
2023/05/31 17:53:45;;;;;;;17.33;13.20;;;21.00;99.90;;;;;;4956992;28;20578;-93
2023/05/31 18:09:06;;;;;;;18.75;13.60;;;20.40;99.90;;;;;;4957263;29;20094;-95
2023/05/31 18:12:12;;;;;;;15.82;12.88;;;20.40;99.90;;;;;;4955893;28;20055;-93
2023/05/31 18:21:34;;;;;;;20.52;13.95;;;20.30;99.90;;;;;;4957352;29;20397;-92
2023/05/31 18:24:10;;;;;;;19.52;13.93;;;20.30;99.90;;;;;;4940811;29;20043;-93
2023/05/31 18:26:41;;;;;;;20.23;14.23;;;20.20;99.90;;;;;;4936809;29;20031;-93
2023/05/31 18:29:08;;;;;;;18.33;13.45;;;20.30;99.90;;;;;;4971793;28;20028;-93
2023/05/31 18:31:37;;;;;;;22.60;14.05;;;20.20;99.90;;;;;;4971662;28;20039;-93
2023/05/31 18:34:13;;;;;;;19.85;12.95;;;20.20;99.90;;;;;;4953402;28;20042;-93
2023/05/31 18:36:43;;;;;;;18.77;12.55;;;20.20;99.90;;;;;;4939798;29;20027;-92
2023/05/31 18:39:12;;;;;;;17.70;13.48;;;20.20;99.90;;;;;;4971561;28;20039;-94
2023/05/31 18:41:39;;;;;;;23.17;13.55;;;20.20;99.90;;;;;;4939297;29;20030;-94
2023/05/31 18:44:06;;;;;;;17.15;12.88;;;20.20;99.90;;;;;;4950917;29;20488;-93
2023/05/31 18:46:33;;;;;;;19.08;13.20;;;20.20;99.90;;;;;;4951385;29;20031;-93
2023/05/31 18:49:09;;;;;;;17.45;13.30;;;20.20;99.90;;;;;;4972175;28;20115;-93
2023/05/31 18:51:38;;;;;;;20.45;13.75;;;20.10;99.90;;;;;;4941111;29;20039;-95
2023/05/31 18:54:09;;;;;;;19.63;13.23;;;20.20;99.90;;;;;;4974752;28;20042;-93
2023/05/31 18:56:48;;;;;;;17.65;13.02;;;20.20;99.90;;;;;;4973158;28;20048;-93
2023/05/31 18:59:23;;;;;;;18.17;13.05;;;20.20;99.90;;;;;;4974512;28;20035;-94
2023/05/31 19:02:01;;;;;;;17.27;12.48;;;20.20;99.90;;;;;;4971665;28;20392;-93
2023/05/31 19:04:28;;;;;;;18.73;12.60;;;20.20;99.90;;;;;;4939596;29;20027;-92
2023/05/31 19:07:05;;;;;;;18.13;12.82;;;20.20;99.90;;;;;;4943947;29;20109;-94
2023/05/31 19:09:47;;;;;;;17.13;12.30;;;20.20;99.90;;;;;;4944781;29;20035;-94
2023/05/31 19:12:13;;;;;;;19.90;12.57;;;20.20;99.90;;;;;;4975846;28;20449;-93
2023/05/31 19:15:09;;;;;;;20.15;12.50;;;20.20;99.90;;;;;;4974918;28;20416;-93
2023/05/31 19:18:17;;;;;;;20.83;13.75;;;20.20;99.90;;;;;;4940064;29;20461;-95
2023/05/31 19:21:18;;;;;;;17.80;13.73;;;20.20;99.90;;;;;;4908753;29;20031;-94
2023/05/31 19:24:12;;;;;;;22.33;13.38;;;20.10;99.90;;;;;;4923656;29;20035;-93
2023/05/31 19:27:11;;;;;;;21.70;12.95;;;20.10;99.90;;;;;;4944202;29;20579;-93
2023/05/31 19:29:44;;;;;;;17.42;13.07;;;20.10;99.90;;;;;;4870055;29;20052;-94
2023/05/31 19:32:11;;;;;;;20.63;14.00;;;20.00;99.90;;;;;;4887308;29;20498;-93
2023/05/31 19:34:38;;;;;;;18.08;13.77;;;20.00;99.90;;;;;;4884896;29;20052;-92
2023/05/31 19:37:04;;;;;;;22.00;14.43;;;20.00;99.90;;;;;;4885041;29;20044;-91
2023/05/31 19:39:31;;;;;;;21.30;14.25;;;20.00;99.90;;;;;;4884834;29;20119;-93
2023/05/31 19:41:58;;;;;;;21.60;14.50;;;19.90;99.90;;;;;;4885155;29;20510;-92
2023/05/31 19:54:49;;;;;;;20.83;14.13;;;19.90;99.90;;;;;;4977033;28;20566;-93
2023/05/31 19:57:16;;;;;;;19.73;14.23;;;20.00;99.90;;;;;;4961337;28;20048;-94
2023/05/31 19:59:47;;;;;;;28.80;14.32;;;19.90;99.90;;;;;;4961982;28;20476;-92
2023/05/31 20:02:14;;;;;;;20.58;13.30;;;19.90;99.90;;;;;;4961633;28;20464;-94
2023/05/31 20:04:41;;;;;;;21.63;14.05;;;19.80;99.90;;;;;;4961763;28;20118;-94
2023/05/31 20:07:08;;;;;;;20.58;13.48;;;19.80;99.90;;;;;;4961213;28;20034;-91
2023/05/31 20:09:35;;;;;;;21.75;13.82;;;19.80;99.90;;;;;;4960962;28;20082;-92
2023/05/31 20:12:03;;;;;;;20.42;13.82;;;19.70;99.90;;;;;;4961003;28;20027;-92
2023/05/31 20:14:29;;;;;;;21.70;14.98;;;19.70;99.90;;;;;;4960972;28;20038;-91
2023/05/31 20:16:58;;;;;;;23.08;15.07;;;19.60;99.90;;;;;;4976681;28;20033;-92
2023/05/31 20:19:25;;;;;;;24.25;15.63;;;19.60;99.90;;;;;;4960756;28;20388;-93
2023/05/31 20:21:52;;;;;;;20.23;13.85;;;19.60;99.90;;;;;;4960892;28;20033;-93
2023/05/31 20:24:19;;;;;;;21.70;13.90;;;19.70;99.90;;;;;;4960972;28;20173;-94
2023/05/31 22:00:42;;;;;;;33.00;18.67;;;18.90;99.90;;;;;;4934880;29;20079;-91
2023/05/31 22:03:12;;;;;;;34.13;20.05;;;18.90;99.90;;;;;;4921052;29;20477;-89
2023/05/31 22:05:38;;;;;;;35.40;20.92;;;18.90;99.90;;;;;;4936921;29;20114;-91
2023/05/31 22:08:05;;;;;;;34.42;20.25;;;18.90;99.90;;;;;;4936516;29;20484;-93
2023/05/31 22:10:31;;;;;;;36.42;20.58;;;18.80;99.90;;;;;;4954797;29;20043;-88
2023/05/31 22:12:58;;;;;;;38.58;21.23;;;18.80;99.90;;;;;;4955687;28;20031;-89
2023/05/31 22:15:25;;;;;;;43.03;21.95;;;18.80;99.90;;;;;;4955412;28;20043;-90
2023/05/31 22:17:54;;;;;;;37.30;20.48;;;18.80;99.90;;;;;;4955720;28;20027;-88
2023/05/31 22:20:21;;;;;;;36.85;20.52;;;18.80;99.90;;;;;;4955227;29;20035;-90
2023/05/31 22:22:49;;;;;;;38.67;21.92;;;18.90;99.90;;;;;;4959532;29;20428;-90
2023/05/31 22:25:18;;;;;;;39.33;21.90;;;18.90;99.90;;;;;;4970232;29;20030;-89
2023/05/31 23:09:15;;;;;;;58.65;29.05;;;18.90;99.90;;;;;;5524103;23;20272;-92
2023/05/31 23:11:49;;;;;;;57.33;28.45;;;18.90;99.90;;;;;;4955170;29;20039;-92
2023/05/31 23:14:15;;;;;;;;;;;18.90;99.90;;;;;;4955762;29;20061;-92
2023/05/31 23:16:44;;;;;;;68.10;29.48;;;18.90;99.90;;;;;;4939140;29;19910;-92
2023/05/31 23:19:12;;;;;;;74.47;33.88;;;18.90;99.90;;;;;;4939241;29;20039;-92
2023/05/31 23:21:39;;;;;;;80.90;36.83;;;18.90;99.90;;;;;;4939309;29;20444;-94
2023/05/31 23:24:07;;;;;;;73.10;33.22;;;18.90;99.90;;;;;;4954563;29;20039;-92
2023/05/31 23:26:34;;;;;;;74.00;33.03;;;18.90;99.90;;;;;;4938730;29;20023;-92